sensor_id;sensor_type;location;lat;lon;timestamp;P1;durP1;ratioP1;P2;durP2;ratioP2
6809;SDS011;3443;48.812;9.112;2023-05-10T00:01:33;1.15;;;0.35;;
6809;SDS011;3443;48.812;9.112;2023-05-10T00:03:59;0.63;;;0.30;;
6809;SDS011;3443;48.812;9.112;2023-05-10T00:06:24;0.38;;;0.20;;
6809;SDS011;3443;48.812;9.112;2023-05-10T00:08:50;0.30;;;0.20;;
6809;SDS011;3443;48.812;9.112;2023-05-10T00:11:16;1.88;;;0.10;;
6809;SDS011;3443;48.812;9.112;2023-05-10T00:13:41;0.75;;;0.20;;
6809;SDS011;3443;48.812;9.112;2023-05-10T00:16:07;0.52;;;0.10;;
6809;SDS011;3443;48.812;9.112;2023-05-10T00:18:33;0.30;;;0.10;;
6809;SDS011;3443;48.812;9.112;2023-05-10T00:20:58;1.08;;;0.10;;
6809;SDS011;3443;48.812;9.112;2023-05-10T00:23:24;0.10;;;0.10;;
6809;SDS011;3443;48.812;9.112;2023-05-10T00:25:49;0.00;;;0.00;;
6809;SDS011;3443;48.812;9.112;2023-05-10T00:28:15;0.00;;;0.00;;
6809;SDS011;3443;48.812;9.112;2023-05-10T00:30:40;1.95;;;0.10;;
6809;SDS011;3443;48.812;9.112;2023-05-10T00:33:06;0.65;;;0.00;;
6809;SDS011;3443;48.812;9.112;2023-05-10T00:35:31;0.10;;;0.00;;
6809;SDS011;3443;48.812;9.112;2023-05-10T00:37:57;4.22;;;0.10;;
6809;SDS011;3443;48.812;9.112;2023-05-10T00:40:23;0.00;;;0.00;;
6809;SDS011;3443;48.812;9.112;2023-05-10T00:42:48;0.20;;;0.00;;
6809;SDS011;3443;48.812;9.112;2023-05-10T00:45:14;0.00;;;0.00;;
6809;SDS011;3443;48.812;9.112;2023-05-10T00:47:39;0.10;;;0.10;;
6809;SDS011;3443;48.812;9.112;2023-05-10T00:50:05;0.00;;;0.00;;
6809;SDS011;3443;48.812;9.112;2023-05-10T00:52:32;0.70;;;0.00;;
6809;SDS011;3443;48.812;9.112;2023-05-10T00:54:57;0.70;;;0.08;;
6809;SDS011;3443;48.812;9.112;2023-05-10T00:57:23;0.10;;;0.10;;
6809;SDS011;3443;48.812;9.112;2023-05-10T00:59:49;0.10;;;0.10;;
6809;SDS011;3443;48.812;9.112;2023-05-10T01:02:15;0.00;;;0.00;;
6809;SDS011;3443;48.812;9.112;2023-05-10T01:04:42;0.10;;;0.10;;
6809;SDS011;3443;48.812;9.112;2023-05-10T01:07:08;0.43;;;0.10;;
6809;SDS011;3443;48.812;9.112;2023-05-10T01:09:34;0.00;;;0.00;;
6809;SDS011;3443;48.812;9.112;2023-05-10T01:11:59;2.08;;;0.10;;
6809;SDS011;3443;48.812;9.112;2023-05-10T01:14:26;0.95;;;0.10;;
6809;SDS011;3443;48.812;9.112;2023-05-10T01:16:53;1.23;;;0.10;;
6809;SDS011;3443;48.812;9.112;2023-05-10T01:19:22;0.10;;;0.10;;
6809;SDS011;3443;48.812;9.112;2023-05-10T01:21:57;0.05;;;0.05;;
6809;SDS011;3443;48.812;9.112;2023-05-10T01:27:44;0.00;;;0.00;;
6809;SDS011;3443;48.812;9.112;2023-05-10T01:33:21;0.10;;;0.00;;
6809;SDS011;3443;48.812;9.112;2023-05-10T01:38:38;0.10;;;0.10;;
6809;SDS011;3443;48.812;9.112;2023-05-10T01:41:18;0.10;;;0.10;;
6809;SDS011;3443;48.812;9.112;2023-05-10T01:43:53;0.10;;;0.10;;
6809;SDS011;3443;48.812;9.112;2023-05-10T01:46:33;2.22;;;0.10;;
6809;SDS011;3443;48.812;9.112;2023-05-10T01:49:02;0.10;;;0.10;;
6809;SDS011;3443;48.812;9.112;2023-05-10T01:51:36;0.10;;;0.10;;
6809;SDS011;3443;48.812;9.112;2023-05-10T01:54:06;0.10;;;0.10;;
6809;SDS011;3443;48.812;9.112;2023-05-10T01:56:33;0.43;;;0.10;;
6809;SDS011;3443;48.812;9.112;2023-05-10T01:59:00;1.20;;;0.10;;
6809;SDS011;3443;48.812;9.112;2023-05-10T02:01:30;0.20;;;0.20;;
6809;SDS011;3443;48.812;9.112;2023-05-10T02:03:58;2.53;;;0.10;;
6809;SDS011;3443;48.812;9.112;2023-05-10T02:06:25;0.10;;;0.10;;
6809;SDS011;3443;48.812;9.112;2023-05-10T02:08:52;0.10;;;0.10;;
6809;SDS011;3443;48.812;9.112;2023-05-10T02:11:18;0.10;;;0.10;;
6809;SDS011;3443;48.812;9.112;2023-05-10T02:13:46;0.17;;;0.17;;
6809;SDS011;3443;48.812;9.112;2023-05-10T02:16:14;0.15;;;0.10;;
6809;SDS011;3443;48.812;9.112;2023-05-10T02:18:41;0.85;;;0.10;;
6809;SDS011;3443;48.812;9.112;2023-05-10T02:21:07;0.17;;;0.00;;
6809;SDS011;3443;48.812;9.112;2023-05-10T02:23:34;0.10;;;0.10;;
6809;SDS011;3443;48.812;9.112;2023-05-10T02:26:01;0.10;;;0.10;;
6809;SDS011;3443;48.812;9.112;2023-05-10T02:28:28;0.73;;;0.10;;
6809;SDS011;3443;48.812;9.112;2023-05-10T02:30:54;0.47;;;0.00;;
6809;SDS011;3443;48.812;9.112;2023-05-10T02:33:21;1.17;;;0.10;;
6809;SDS011;3443;48.812;9.112;2023-05-10T02:35:47;0.10;;;0.10;;
6809;SDS011;3443;48.812;9.112;2023-05-10T02:38:15;0.40;;;0.10;;
6809;SDS011;3443;48.812;9.112;2023-05-10T02:40:41;0.10;;;0.10;;
6809;SDS011;3443;48.812;9.112;2023-05-10T02:43:09;0.10;;;0.10;;
6809;SDS011;3443;48.812;9.112;2023-05-10T02:45:39;0.10;;;0.03;;
6809;SDS011;3443;48.812;9.112;2023-05-10T02:48:07;0.20;;;0.20;;
6809;SDS011;3443;48.812;9.112;2023-05-10T02:50:33;0.17;;;0.17;;
6809;SDS011;3443;48.812;9.112;2023-05-10T02:53:00;0.20;;;0.10;;
6809;SDS011;3443;48.812;9.112;2023-05-10T02:55:31;1.75;;;0.10;;
6809;SDS011;3443;48.812;9.112;2023-05-10T02:58:01;0.43;;;0.17;;
6809;SDS011;3443;48.812;9.112;2023-05-10T03:00:28;0.10;;;0.10;;
6809;SDS011;3443;48.812;9.112;2023-05-10T03:02:54;0.10;;;0.10;;
6809;SDS011;3443;48.812;9.112;2023-05-10T03:05:20;0.17;;;0.10;;
6809;SDS011;3443;48.812;9.112;2023-05-10T03:07:46;1.00;;;0.08;;
6809;SDS011;3443;48.812;9.112;2023-05-10T03:10:12;0.32;;;0.10;;
6809;SDS011;3443;48.812;9.112;2023-05-10T03:12:41;0.65;;;0.20;;
6809;SDS011;3443;48.812;9.112;2023-05-10T03:15:18;0.10;;;0.10;;
6809;SDS011;3443;48.812;9.112;2023-05-10T03:17:54;0.47;;;0.10;;
6809;SDS011;3443;48.812;9.112;2023-05-10T03:20:31;0.10;;;0.10;;
6809;SDS011;3443;48.812;9.112;2023-05-10T03:23:16;0.10;;;0.10;;
6809;SDS011;3443;48.812;9.112;2023-05-10T03:25:46;0.68;;;0.20;;
6809;SDS011;3443;48.812;9.112;2023-05-10T03:28:15;0.20;;;0.20;;
6809;SDS011;3443;48.812;9.112;2023-05-10T03:30:42;2.75;;;0.20;;
6809;SDS011;3443;48.812;9.112;2023-05-10T03:33:09;1.55;;;0.10;;
6809;SDS011;3443;48.812;9.112;2023-05-10T03:35:35;0.10;;;0.10;;
6809;SDS011;3443;48.812;9.112;2023-05-10T03:38:01;0.43;;;0.10;;
6809;SDS011;3443;48.812;9.112;2023-05-10T03:40:27;3.30;;;0.13;;
6809;SDS011;3443;48.812;9.112;2023-05-10T03:42:56;0.20;;;0.20;;
6809;SDS011;3443;48.812;9.112;2023-05-10T03:45:22;0.30;;;0.30;;
6809;SDS011;3443;48.812;9.112;2023-05-10T03:47:47;0.20;;;0.20;;
6809;SDS011;3443;48.812;9.112;2023-05-10T03:50:13;1.15;;;0.28;;
6809;SDS011;3443;48.812;9.112;2023-05-10T03:52:38;0.52;;;0.22;;
6809;SDS011;3443;48.812;9.112;2023-05-10T03:55:04;0.20;;;0.20;;
6809;SDS011;3443;48.812;9.112;2023-05-10T03:57:31;0.20;;;0.20;;
6809;SDS011;3443;48.812;9.112;2023-05-10T03:59:57;0.45;;;0.20;;
6809;SDS011;3443;48.812;9.112;2023-05-10T04:02:22;0.20;;;0.20;;
6809;SDS011;3443;48.812;9.112;2023-05-10T04:04:48;0.63;;;0.20;;
6809;SDS011;3443;48.812;9.112;2023-05-10T04:07:14;0.22;;;0.22;;
6809;SDS011;3443;48.812;9.112;2023-05-10T04:09:39;1.48;;;0.30;;
6809;SDS011;3443;48.812;9.112;2023-05-10T04:12:05;0.65;;;0.20;;
6809;SDS011;3443;48.812;9.112;2023-05-10T04:14:31;0.55;;;0.17;;
6809;SDS011;3443;48.812;9.112;2023-05-10T04:16:56;0.20;;;0.20;;
6809;SDS011;3443;48.812;9.112;2023-05-10T04:19:22;0.70;;;0.38;;
6809;SDS011;3443;48.812;9.112;2023-05-10T04:21:48;3.80;;;0.38;;
6809;SDS011;3443;48.812;9.112;2023-05-10T04:24:14;0.20;;;0.20;;
6809;SDS011;3443;48.812;9.112;2023-05-10T04:26:39;0.20;;;0.20;;
6809;SDS011;3443;48.812;9.112;2023-05-10T04:29:05;0.52;;;0.20;;
6809;SDS011;3443;48.812;9.112;2023-05-10T04:31:31;0.20;;;0.20;;
6809;SDS011;3443;48.812;9.112;2023-05-10T04:33:56;2.15;;;0.28;;
6809;SDS011;3443;48.812;9.112;2023-05-10T04:36:22;0.30;;;0.30;;
6809;SDS011;3443;48.812;9.112;2023-05-10T04:38:47;0.20;;;0.20;;
6809;SDS011;3443;48.812;9.112;2023-05-10T04:41:13;1.95;;;0.30;;
6809;SDS011;3443;48.812;9.112;2023-05-10T04:43:38;0.52;;;0.30;;
6809;SDS011;3443;48.812;9.112;2023-05-10T04:46:05;0.30;;;0.20;;
6809;SDS011;3443;48.812;9.112;2023-05-10T04:48:32;0.20;;;0.20;;
6809;SDS011;3443;48.812;9.112;2023-05-10T04:50:57;0.20;;;0.20;;
6809;SDS011;3443;48.812;9.112;2023-05-10T04:53:23;1.02;;;0.35;;
6809;SDS011;3443;48.812;9.112;2023-05-10T04:55:49;0.30;;;0.30;;
6809;SDS011;3443;48.812;9.112;2023-05-10T04:58:14;2.35;;;0.30;;
6809;SDS011;3443;48.812;9.112;2023-05-10T05:00:40;0.40;;;0.40;;
6809;SDS011;3443;48.812;9.112;2023-05-10T05:03:06;0.30;;;0.30;;
6809;SDS011;3443;48.812;9.112;2023-05-10T05:05:32;0.85;;;0.22;;
6809;SDS011;3443;48.812;9.112;2023-05-10T05:07:57;0.55;;;0.20;;
6809;SDS011;3443;48.812;9.112;2023-05-10T05:10:23;0.30;;;0.30;;
6809;SDS011;3443;48.812;9.112;2023-05-10T05:12:48;0.40;;;0.40;;
6809;SDS011;3443;48.812;9.112;2023-05-10T05:15:14;0.60;;;0.40;;
6809;SDS011;3443;48.812;9.112;2023-05-10T05:17:41;2.40;;;0.40;;
6809;SDS011;3443;48.812;9.112;2023-05-10T05:20:07;0.43;;;0.20;;
6809;SDS011;3443;48.812;9.112;2023-05-10T05:22:33;0.52;;;0.30;;
6809;SDS011;3443;48.812;9.112;2023-05-10T05:25:01;0.20;;;0.20;;
6809;SDS011;3443;48.812;9.112;2023-05-10T05:27:28;0.20;;;0.20;;
6809;SDS011;3443;48.812;9.112;2023-05-10T05:29:55;0.38;;;0.38;;
6809;SDS011;3443;48.812;9.112;2023-05-10T05:32:21;0.20;;;0.20;;
6809;SDS011;3443;48.812;9.112;2023-05-10T05:34:47;2.17;;;0.20;;
6809;SDS011;3443;48.812;9.112;2023-05-10T05:37:16;0.20;;;0.20;;
6809;SDS011;3443;48.812;9.112;2023-05-10T05:39:43;0.30;;;0.30;;
6809;SDS011;3443;48.812;9.112;2023-05-10T05:42:09;0.57;;;0.25;;
6809;SDS011;3443;48.812;9.112;2023-05-10T05:44:36;0.70;;;0.30;;
6809;SDS011;3443;48.812;9.112;2023-05-10T05:47:02;0.25;;;0.13;;
6809;SDS011;3443;48.812;9.112;2023-05-10T05:49:28;1.65;;;0.38;;
6809;SDS011;3443;48.812;9.112;2023-05-10T05:51:54;3.08;;;0.40;;
6809;SDS011;3443;48.812;9.112;2023-05-10T05:54:19;0.47;;;0.20;;
6809;SDS011;3443;48.812;9.112;2023-05-10T05:56:45;0.63;;;0.40;;
6809;SDS011;3443;48.812;9.112;2023-05-10T05:59:11;0.73;;;0.32;;
6809;SDS011;3443;48.812;9.112;2023-05-10T06:01:36;0.30;;;0.30;;
6809;SDS011;3443;48.812;9.112;2023-05-10T06:04:02;0.20;;;0.20;;
6809;SDS011;3443;48.812;9.112;2023-05-10T06:06:27;0.63;;;0.35;;
6809;SDS011;3443;48.812;9.112;2023-05-10T06:08:53;0.20;;;0.20;;
6809;SDS011;3443;48.812;9.112;2023-05-10T06:11:19;0.60;;;0.40;;
6809;SDS011;3443;48.812;9.112;2023-05-10T06:13:46;0.20;;;0.20;;
6809;SDS011;3443;48.812;9.112;2023-05-10T06:16:12;0.63;;;0.30;;
6809;SDS011;3443;48.812;9.112;2023-05-10T06:18:38;2.35;;;0.30;;
6809;SDS011;3443;48.812;9.112;2023-05-10T06:21:03;0.55;;;0.55;;
6809;SDS011;3443;48.812;9.112;2023-05-10T06:23:29;0.50;;;0.38;;
6809;SDS011;3443;48.812;9.112;2023-05-10T06:25:54;0.75;;;0.40;;
6809;SDS011;3443;48.812;9.112;2023-05-10T06:28:20;1.17;;;0.30;;
6809;SDS011;3443;48.812;9.112;2023-05-10T06:30:46;0.40;;;0.40;;
6809;SDS011;3443;48.812;9.112;2023-05-10T06:33:11;1.55;;;0.50;;
6809;SDS011;3443;48.812;9.112;2023-05-10T06:35:37;0.52;;;0.50;;
6809;SDS011;3443;48.812;9.112;2023-05-10T06:38:03;1.65;;;0.40;;
6809;SDS011;3443;48.812;9.112;2023-05-10T06:40:29;2.13;;;0.38;;
6809;SDS011;3443;48.812;9.112;2023-05-10T06:42:55;0.40;;;0.40;;
6809;SDS011;3443;48.812;9.112;2023-05-10T06:45:20;0.40;;;0.40;;
6809;SDS011;3443;48.812;9.112;2023-05-10T06:47:46;0.30;;;0.30;;
6809;SDS011;3443;48.812;9.112;2023-05-10T06:50:11;0.40;;;0.40;;
6809;SDS011;3443;48.812;9.112;2023-05-10T06:52:37;0.30;;;0.30;;
6809;SDS011;3443;48.812;9.112;2023-05-10T06:55:03;0.40;;;0.40;;
6809;SDS011;3443;48.812;9.112;2023-05-10T06:57:30;0.45;;;0.45;;
6809;SDS011;3443;48.812;9.112;2023-05-10T06:59:55;0.50;;;0.50;;
6809;SDS011;3443;48.812;9.112;2023-05-10T07:02:21;1.23;;;0.40;;
6809;SDS011;3443;48.812;9.112;2023-05-10T07:04:48;0.30;;;0.30;;
6809;SDS011;3443;48.812;9.112;2023-05-10T07:07:13;1.38;;;0.40;;
6809;SDS011;3443;48.812;9.112;2023-05-10T07:09:39;0.30;;;0.30;;
6809;SDS011;3443;48.812;9.112;2023-05-10T07:12:05;0.68;;;0.32;;
6809;SDS011;3443;48.812;9.112;2023-05-10T07:14:31;1.85;;;0.30;;
6809;SDS011;3443;48.812;9.112;2023-05-10T07:16:56;0.43;;;0.30;;
6809;SDS011;3443;48.812;9.112;2023-05-10T07:19:22;1.08;;;0.50;;
6809;SDS011;3443;48.812;9.112;2023-05-10T07:21:48;0.60;;;0.60;;
6809;SDS011;3443;48.812;9.112;2023-05-10T07:24:13;0.40;;;0.40;;
6809;SDS011;3443;48.812;9.112;2023-05-10T07:26:39;1.33;;;0.40;;
6809;SDS011;3443;48.812;9.112;2023-05-10T07:29:05;0.50;;;0.50;;
6809;SDS011;3443;48.812;9.112;2023-05-10T07:31:30;0.40;;;0.40;;
6809;SDS011;3443;48.812;9.112;2023-05-10T07:33:56;0.50;;;0.50;;
6809;SDS011;3443;48.812;9.112;2023-05-10T07:36:21;0.30;;;0.30;;
6809;SDS011;3443;48.812;9.112;2023-05-10T07:38:47;0.40;;;0.40;;
6809;SDS011;3443;48.812;9.112;2023-05-10T07:41:14;0.73;;;0.50;;
6809;SDS011;3443;48.812;9.112;2023-05-10T07:43:39;0.43;;;0.43;;
6809;SDS011;3443;48.812;9.112;2023-05-10T07:46:05;3.90;;;0.52;;
6809;SDS011;3443;48.812;9.112;2023-05-10T07:48:31;3.38;;;0.38;;
6809;SDS011;3443;48.812;9.112;2023-05-10T07:50:56;2.80;;;0.30;;
6809;SDS011;3443;48.812;9.112;2023-05-10T07:53:22;0.50;;;0.20;;
6809;SDS011;3443;48.812;9.112;2023-05-10T07:55:51;3.30;;;0.38;;
6809;SDS011;3443;48.812;9.112;2023-05-10T07:58:19;0.20;;;0.20;;
6809;SDS011;3443;48.812;9.112;2023-05-10T08:00:45;2.50;;;0.43;;
6809;SDS011;3443;48.812;9.112;2023-05-10T08:03:10;0.22;;;0.22;;
6809;SDS011;3443;48.812;9.112;2023-05-10T08:05:36;0.28;;;0.28;;
6809;SDS011;3443;48.812;9.112;2023-05-10T08:08:01;0.30;;;0.30;;
6809;SDS011;3443;48.812;9.112;2023-05-10T08:10:27;0.30;;;0.30;;
6809;SDS011;3443;48.812;9.112;2023-05-10T08:12:53;2.45;;;0.20;;
6809;SDS011;3443;48.812;9.112;2023-05-10T08:15:18;1.27;;;0.30;;
6809;SDS011;3443;48.812;9.112;2023-05-10T08:17:44;2.00;;;0.40;;
6809;SDS011;3443;48.812;9.112;2023-05-10T08:20:09;0.20;;;0.15;;
6809;SDS011;3443;48.812;9.112;2023-05-10T08:22:37;0.55;;;0.10;;
6809;SDS011;3443;48.812;9.112;2023-05-10T08:25:03;0.10;;;0.10;;
6809;SDS011;3443;48.812;9.112;2023-05-10T08:27:29;0.20;;;0.20;;
6809;SDS011;3443;48.812;9.112;2023-05-10T08:29:54;0.20;;;0.20;;
6809;SDS011;3443;48.812;9.112;2023-05-10T08:32:20;0.20;;;0.20;;
6809;SDS011;3443;48.812;9.112;2023-05-10T08:34:46;0.20;;;0.10;;
6809;SDS011;3443;48.812;9.112;2023-05-10T08:37:11;0.20;;;0.20;;
6809;SDS011;3443;48.812;9.112;2023-05-10T08:39:38;0.77;;;0.10;;
6809;SDS011;3443;48.812;9.112;2023-05-10T08:42:04;0.10;;;0.10;;
6809;SDS011;3443;48.812;9.112;2023-05-10T08:44:34;0.25;;;0.20;;
6809;SDS011;3443;48.812;9.112;2023-05-10T08:47:04;0.52;;;0.20;;
6809;SDS011;3443;48.812;9.112;2023-05-10T08:49:34;0.20;;;0.20;;
6809;SDS011;3443;48.812;9.112;2023-05-10T08:52:01;1.25;;;0.25;;
6809;SDS011;3443;48.812;9.112;2023-05-10T08:54:29;1.00;;;0.17;;
6809;SDS011;3443;48.812;9.112;2023-05-10T08:56:56;1.27;;;0.10;;
6809;SDS011;3443;48.812;9.112;2023-05-10T08:59:22;1.98;;;0.13;;
6809;SDS011;3443;48.812;9.112;2023-05-10T09:01:47;0.35;;;0.10;;
6809;SDS011;3443;48.812;9.112;2023-05-10T09:04:15;0.77;;;0.20;;
6809;SDS011;3443;48.812;9.112;2023-05-10T09:06:40;0.20;;;0.20;;
6809;SDS011;3443;48.812;9.112;2023-05-10T09:09:06;0.20;;;0.10;;
6809;SDS011;3443;48.812;9.112;2023-05-10T09:11:32;2.95;;;0.10;;
6809;SDS011;3443;48.812;9.112;2023-05-10T09:13:58;3.22;;;0.20;;
6809;SDS011;3443;48.812;9.112;2023-05-10T09:16:23;0.38;;;0.10;;
6809;SDS011;3443;48.812;9.112;2023-05-10T09:18:49;0.98;;;0.10;;
6809;SDS011;3443;48.812;9.112;2023-05-10T09:21:15;0.55;;;0.20;;
6809;SDS011;3443;48.812;9.112;2023-05-10T09:23:44;0.10;;;0.10;;
6809;SDS011;3443;48.812;9.112;2023-05-10T09:26:11;0.52;;;0.20;;
6809;SDS011;3443;48.812;9.112;2023-05-10T09:28:50;1.27;;;0.10;;
6809;SDS011;3443;48.812;9.112;2023-05-10T09:31:20;0.70;;;0.10;;
6809;SDS011;3443;48.812;9.112;2023-05-10T09:33:47;0.68;;;0.20;;
6809;SDS011;3443;48.812;9.112;2023-05-10T09:36:14;0.10;;;0.10;;
6809;SDS011;3443;48.812;9.112;2023-05-10T09:38:46;1.27;;;0.20;;
6809;SDS011;3443;48.812;9.112;2023-05-10T09:41:20;2.75;;;0.40;;
6809;SDS011;3443;48.812;9.112;2023-05-10T09:43:47;3.75;;;0.30;;
6809;SDS011;3443;48.812;9.112;2023-05-10T09:46:14;0.38;;;0.20;;
6809;SDS011;3443;48.812;9.112;2023-05-10T09:48:42;2.17;;;0.20;;
6809;SDS011;3443;48.812;9.112;2023-05-10T09:51:24;1.85;;;0.20;;
6809;SDS011;3443;48.812;9.112;2023-05-10T09:56:37;0.20;;;0.20;;
6809;SDS011;3443;48.812;9.112;2023-05-10T09:59:05;1.00;;;0.20;;
6809;SDS011;3443;48.812;9.112;2023-05-10T10:01:31;0.45;;;0.20;;
6809;SDS011;3443;48.812;9.112;2023-05-10T10:03:58;0.50;;;0.20;;
6809;SDS011;3443;48.812;9.112;2023-05-10T10:06:23;0.20;;;0.20;;
6809;SDS011;3443;48.812;9.112;2023-05-10T10:08:50;0.32;;;0.15;;
6809;SDS011;3443;48.812;9.112;2023-05-10T10:11:16;0.15;;;0.10;;
6809;SDS011;3443;48.812;9.112;2023-05-10T10:13:42;0.20;;;0.20;;
6809;SDS011;3443;48.812;9.112;2023-05-10T10:16:08;0.50;;;0.17;;
6809;SDS011;3443;48.812;9.112;2023-05-10T10:18:35;1.25;;;0.30;;
6809;SDS011;3443;48.812;9.112;2023-05-10T10:21:04;1.45;;;0.20;;
6809;SDS011;3443;48.812;9.112;2023-05-10T10:23:36;0.20;;;0.20;;
6809;SDS011;3443;48.812;9.112;2023-05-10T10:26:02;0.55;;;0.10;;
6809;SDS011;3443;48.812;9.112;2023-05-10T10:28:35;0.20;;;0.10;;
6809;SDS011;3443;48.812;9.112;2023-05-10T10:31:26;0.10;;;0.10;;
6809;SDS011;3443;48.812;9.112;2023-05-10T10:34:03;1.55;;;0.20;;
6809;SDS011;3443;48.812;9.112;2023-05-10T10:36:32;0.30;;;0.20;;
6809;SDS011;3443;48.812;9.112;2023-05-10T10:39:07;1.17;;;0.20;;
6809;SDS011;3443;48.812;9.112;2023-05-10T10:41:39;1.00;;;0.10;;
6809;SDS011;3443;48.812;9.112;2023-05-10T10:55:02;1.38;;;0.10;;
6809;SDS011;3443;48.812;9.112;2023-05-10T10:57:28;1.30;;;0.10;;
6809;SDS011;3443;48.812;9.112;2023-05-10T11:00:17;0.73;;;0.10;;
6809;SDS011;3443;48.812;9.112;2023-05-10T11:02:43;1.90;;;0.20;;
6809;SDS011;3443;48.812;9.112;2023-05-10T11:08:12;0.20;;;0.20;;
6809;SDS011;3443;48.812;9.112;2023-05-10T11:10:49;2.15;;;0.15;;
6809;SDS011;3443;48.812;9.112;2023-05-10T11:16:13;0.85;;;0.10;;
6809;SDS011;3443;48.812;9.112;2023-05-10T11:18:53;0.50;;;0.20;;
6809;SDS011;3443;48.812;9.112;2023-05-10T11:21:22;0.17;;;0.17;;
6809;SDS011;3443;48.812;9.112;2023-05-10T11:23:49;1.23;;;0.30;;
6809;SDS011;3443;48.812;9.112;2023-05-10T11:26:17;1.08;;;0.10;;
6809;SDS011;3443;48.812;9.112;2023-05-10T11:28:43;0.10;;;0.10;;
6809;SDS011;3443;48.812;9.112;2023-05-10T11:31:10;1.10;;;0.20;;
6809;SDS011;3443;48.812;9.112;2023-05-10T11:39:05;2.70;;;0.20;;
6809;SDS011;3443;48.812;9.112;2023-05-10T11:41:31;1.48;;;0.20;;
6809;SDS011;3443;48.812;9.112;2023-05-10T11:43:57;1.17;;;0.10;;
6809;SDS011;3443;48.812;9.112;2023-05-10T11:46:24;1.20;;;0.20;;
6809;SDS011;3443;48.812;9.112;2023-05-10T11:48:52;0.85;;;0.20;;
6809;SDS011;3443;48.812;9.112;2023-05-10T11:51:20;0.43;;;0.30;;
6809;SDS011;3443;48.812;9.112;2023-05-10T11:53:47;1.05;;;0.20;;
6809;SDS011;3443;48.812;9.112;2023-05-10T11:56:13;0.95;;;0.28;;
6809;SDS011;3443;48.812;9.112;2023-05-10T11:58:39;1.38;;;0.30;;
6809;SDS011;3443;48.812;9.112;2023-05-10T12:01:05;2.88;;;0.40;;
6809;SDS011;3443;48.812;9.112;2023-05-10T12:03:32;0.60;;;0.20;;
6809;SDS011;3443;48.812;9.112;2023-05-10T12:06:00;4.35;;;0.30;;
6809;SDS011;3443;48.812;9.112;2023-05-10T12:08:27;2.53;;;0.35;;
6809;SDS011;3443;48.812;9.112;2023-05-10T12:11:04;1.30;;;0.30;;
6809;SDS011;3443;48.812;9.112;2023-05-10T12:13:31;0.77;;;0.20;;
6809;SDS011;3443;48.812;9.112;2023-05-10T12:15:59;2.13;;;0.20;;
6809;SDS011;3443;48.812;9.112;2023-05-10T12:18:41;0.75;;;0.38;;
6809;SDS011;3443;48.812;9.112;2023-05-10T12:21:07;0.73;;;0.30;;
6809;SDS011;3443;48.812;9.112;2023-05-10T12:23:35;3.20;;;0.38;;
6809;SDS011;3443;48.812;9.112;2023-05-10T12:26:04;1.25;;;0.25;;
6809;SDS011;3443;48.812;9.112;2023-05-10T12:28:30;2.83;;;0.40;;
6809;SDS011;3443;48.812;9.112;2023-05-10T12:30:59;0.40;;;0.30;;
6809;SDS011;3443;48.812;9.112;2023-05-10T12:33:26;1.10;;;0.30;;
6809;SDS011;3443;48.812;9.112;2023-05-10T12:35:53;1.05;;;0.30;;
6809;SDS011;3443;48.812;9.112;2023-05-10T12:38:26;1.85;;;0.30;;
6809;SDS011;3443;48.812;9.112;2023-05-10T12:40:56;0.52;;;0.30;;
6809;SDS011;3443;48.812;9.112;2023-05-10T12:43:25;0.20;;;0.20;;
6809;SDS011;3443;48.812;9.112;2023-05-10T12:45:51;0.65;;;0.20;;
6809;SDS011;3443;48.812;9.112;2023-05-10T12:48:17;2.72;;;0.45;;
6809;SDS011;3443;48.812;9.112;2023-05-10T12:50:42;0.40;;;0.30;;
6809;SDS011;3443;48.812;9.112;2023-05-10T12:53:08;1.20;;;0.30;;
6809;SDS011;3443;48.812;9.112;2023-05-10T12:55:34;4.07;;;0.30;;
6809;SDS011;3443;48.812;9.112;2023-05-10T12:57:59;5.10;;;0.32;;
6809;SDS011;3443;48.812;9.112;2023-05-10T13:00:25;0.57;;;0.30;;
6809;SDS011;3443;48.812;9.112;2023-05-10T13:02:50;1.42;;;0.30;;
6809;SDS011;3443;48.812;9.112;2023-05-10T13:05:17;1.27;;;0.22;;
6809;SDS011;3443;48.812;9.112;2023-05-10T13:07:42;1.60;;;0.30;;
6809;SDS011;3443;48.812;9.112;2023-05-10T13:10:09;0.90;;;0.35;;
6809;SDS011;3443;48.812;9.112;2023-05-10T13:12:35;0.47;;;0.40;;
6809;SDS011;3443;48.812;9.112;2023-05-10T13:15:00;1.33;;;0.20;;
6809;SDS011;3443;48.812;9.112;2023-05-10T13:17:27;0.13;;;0.13;;
6809;SDS011;3443;48.812;9.112;2023-05-10T13:19:53;2.55;;;0.30;;
6809;SDS011;3443;48.812;9.112;2023-05-10T13:22:18;1.23;;;0.30;;
6809;SDS011;3443;48.812;9.112;2023-05-10T13:24:44;1.40;;;0.43;;
6809;SDS011;3443;48.812;9.112;2023-05-10T13:27:10;0.40;;;0.20;;
6809;SDS011;3443;48.812;9.112;2023-05-10T13:29:35;1.45;;;0.38;;
6809;SDS011;3443;48.812;9.112;2023-05-10T13:32:01;0.70;;;0.28;;
6809;SDS011;3443;48.812;9.112;2023-05-10T13:34:27;1.25;;;0.45;;
6809;SDS011;3443;48.812;9.112;2023-05-10T13:36:52;0.45;;;0.38;;
6809;SDS011;3443;48.812;9.112;2023-05-10T13:39:19;0.55;;;0.30;;
6809;SDS011;3443;48.812;9.112;2023-05-10T13:41:45;0.65;;;0.30;;
6809;SDS011;3443;48.812;9.112;2023-05-10T13:44:12;0.40;;;0.20;;
6809;SDS011;3443;48.812;9.112;2023-05-10T13:46:39;1.42;;;0.30;;
6809;SDS011;3443;48.812;9.112;2023-05-10T13:49:05;4.47;;;0.30;;
6809;SDS011;3443;48.812;9.112;2023-05-10T13:51:30;0.57;;;0.30;;
6809;SDS011;3443;48.812;9.112;2023-05-10T13:53:56;2.08;;;0.25;;
6809;SDS011;3443;48.812;9.112;2023-05-10T13:56:22;0.50;;;0.50;;
6809;SDS011;3443;48.812;9.112;2023-05-10T13:58:48;0.85;;;0.40;;
6809;SDS011;3443;48.812;9.112;2023-05-10T14:01:14;1.73;;;0.40;;
6809;SDS011;3443;48.812;9.112;2023-05-10T14:03:39;0.75;;;0.30;;
6809;SDS011;3443;48.812;9.112;2023-05-10T14:06:05;0.40;;;0.22;;
6809;SDS011;3443;48.812;9.112;2023-05-10T14:08:32;1.55;;;0.35;;
6809;SDS011;3443;48.812;9.112;2023-05-10T14:10:58;1.02;;;0.30;;
6809;SDS011;3443;48.812;9.112;2023-05-10T14:13:23;0.22;;;0.22;;
6809;SDS011;3443;48.812;9.112;2023-05-10T14:15:49;2.90;;;0.40;;
6809;SDS011;3443;48.812;9.112;2023-05-10T14:18:15;0.85;;;0.30;;
6809;SDS011;3443;48.812;9.112;2023-05-10T14:20:41;0.50;;;0.20;;
6809;SDS011;3443;48.812;9.112;2023-05-10T14:23:07;0.50;;;0.20;;
6809;SDS011;3443;48.812;9.112;2023-05-10T14:25:32;2.40;;;0.20;;
6809;SDS011;3443;48.812;9.112;2023-05-10T14:27:59;1.42;;;0.40;;
6809;SDS011;3443;48.812;9.112;2023-05-10T14:30:25;0.30;;;0.30;;
6809;SDS011;3443;48.812;9.112;2023-05-10T14:32:50;0.30;;;0.30;;
6809;SDS011;3443;48.812;9.112;2023-05-10T14:35:17;1.70;;;0.28;;
6809;SDS011;3443;48.812;9.112;2023-05-10T14:37:43;0.20;;;0.20;;
6809;SDS011;3443;48.812;9.112;2023-05-10T14:40:08;0.73;;;0.20;;
6809;SDS011;3443;48.812;9.112;2023-05-10T14:42:34;2.67;;;0.40;;
6809;SDS011;3443;48.812;9.112;2023-05-10T14:45:00;0.40;;;0.30;;
6809;SDS011;3443;48.812;9.112;2023-05-10T14:47:25;0.32;;;0.20;;
6809;SDS011;3443;48.812;9.112;2023-05-10T14:49:51;0.57;;;0.30;;
6809;SDS011;3443;48.812;9.112;2023-05-10T14:52:16;0.30;;;0.30;;
6809;SDS011;3443;48.812;9.112;2023-05-10T14:54:42;0.20;;;0.20;;
6809;SDS011;3443;48.812;9.112;2023-05-10T14:57:07;0.57;;;0.20;;
6809;SDS011;3443;48.812;9.112;2023-05-10T14:59:33;1.45;;;0.20;;
6809;SDS011;3443;48.812;9.112;2023-05-10T15:01:59;1.20;;;0.20;;
6809;SDS011;3443;48.812;9.112;2023-05-10T15:04:24;0.20;;;0.20;;
6809;SDS011;3443;48.812;9.112;2023-05-10T15:06:50;2.50;;;0.25;;
6809;SDS011;3443;48.812;9.112;2023-05-10T15:09:16;0.63;;;0.40;;
6809;SDS011;3443;48.812;9.112;2023-05-10T15:11:41;0.28;;;0.20;;
6809;SDS011;3443;48.812;9.112;2023-05-10T15:14:08;0.30;;;0.28;;
6809;SDS011;3443;48.812;9.112;2023-05-10T15:16:33;0.28;;;0.28;;
6809;SDS011;3443;48.812;9.112;2023-05-10T15:18:59;0.20;;;0.20;;
6809;SDS011;3443;48.812;9.112;2023-05-10T15:21:24;1.00;;;0.30;;
6809;SDS011;3443;48.812;9.112;2023-05-10T15:23:50;3.10;;;0.50;;
6809;SDS011;3443;48.812;9.112;2023-05-10T15:26:16;0.88;;;0.28;;
6809;SDS011;3443;48.812;9.112;2023-05-10T15:28:41;1.70;;;0.30;;
6809;SDS011;3443;48.812;9.112;2023-05-10T15:31:07;0.52;;;0.20;;
6809;SDS011;3443;48.812;9.112;2023-05-10T15:33:32;0.50;;;0.20;;
6809;SDS011;3443;48.812;9.112;2023-05-10T15:35:58;1.80;;;0.20;;
6809;SDS011;3443;48.812;9.112;2023-05-10T15:38:23;1.27;;;0.30;;
6809;SDS011;3443;48.812;9.112;2023-05-10T15:40:49;0.50;;;0.30;;
6809;SDS011;3443;48.812;9.112;2023-05-10T15:43:14;1.33;;;0.30;;
6809;SDS011;3443;48.812;9.112;2023-05-10T15:45:41;2.13;;;0.40;;
6809;SDS011;3443;48.812;9.112;2023-05-10T15:48:06;0.30;;;0.30;;